sensor_id;sensor_type;location;lat;lon;timestamp;temperature;humidity
2100;DHT22;1055;48.854;9.302;2022-10-23T00:00:28;13.60;99.90
2100;DHT22;1055;48.854;9.302;2022-10-23T00:02:53;13.60;99.90
2100;DHT22;1055;48.854;9.302;2022-10-23T00:05:21;13.70;99.90
2100;DHT22;1055;48.854;9.302;2022-10-23T00:07:54;13.70;99.90
2100;DHT22;1055;48.854;9.302;2022-10-23T00:10:21;13.50;99.90
2100;DHT22;1055;48.854;9.302;2022-10-23T00:12:48;13.50;99.90
2100;DHT22;1055;48.854;9.302;2022-10-23T00:15:16;13.60;99.90
2100;DHT22;1055;48.854;9.302;2022-10-23T00:17:41;13.60;99.90
2100;DHT22;1055;48.854;9.302;2022-10-23T00:20:08;13.60;99.90
2100;DHT22;1055;48.854;9.302;2022-10-23T00:22:34;13.60;99.90
2100;DHT22;1055;48.854;9.302;2022-10-23T00:24:59;13.60;99.90
2100;DHT22;1055;48.854;9.302;2022-10-23T00:27:25;13.40;99.90
2100;DHT22;1055;48.854;9.302;2022-10-23T00:29:51;13.00;99.90
2100;DHT22;1055;48.854;9.302;2022-10-23T00:32:17;12.90;99.90
2100;DHT22;1055;48.854;9.302;2022-10-23T00:34:42;12.90;99.90
2100;DHT22;1055;48.854;9.302;2022-10-23T00:37:08;13.00;99.90
2100;DHT22;1055;48.854;9.302;2022-10-23T00:39:34;13.00;99.90
2100;DHT22;1055;48.854;9.302;2022-10-23T00:42:00;13.00;99.90
2100;DHT22;1055;48.854;9.302;2022-10-23T00:46:54;13.10;99.90
2100;DHT22;1055;48.854;9.302;2022-10-23T00:49:21;12.90;99.90
2100;DHT22;1055;48.854;9.302;2022-10-23T00:51:50;12.90;99.90
2100;DHT22;1055;48.854;9.302;2022-10-23T00:54:20;12.40;99.90
2100;DHT22;1055;48.854;9.302;2022-10-23T00:56:46;11.90;99.90
2100;DHT22;1055;48.854;9.302;2022-10-23T00:59:12;11.90;99.90
2100;DHT22;1055;48.854;9.302;2022-10-23T01:01:39;12.10;99.90
2100;DHT22;1055;48.854;9.302;2022-10-23T01:04:06;12.30;99.90
2100;DHT22;1055;48.854;9.302;2022-10-23T01:12:23;11.80;99.90
2100;DHT22;1055;48.854;9.302;2022-10-23T01:15:07;11.60;99.90
2100;DHT22;1055;48.854;9.302;2022-10-23T01:17:43;11.50;99.90
2100;DHT22;1055;48.854;9.302;2022-10-23T01:28:11;11.20;99.90
2100;DHT22;1055;48.854;9.302;2022-10-23T01:30:42;11.20;99.90
2100;DHT22;1055;48.854;9.302;2022-10-23T01:33:22;11.50;99.90
2100;DHT22;1055;48.854;9.302;2022-10-23T01:35:59;11.60;99.90
2100;DHT22;1055;48.854;9.302;2022-10-23T01:38:38;11.60;99.90
2100;DHT22;1055;48.854;9.302;2022-10-23T01:41:18;11.60;99.90
2100;DHT22;1055;48.854;9.302;2022-10-23T01:43:53;11.40;99.90
2100;DHT22;1055;48.854;9.302;2022-10-23T01:46:21;11.40;99.90
2100;DHT22;1055;48.854;9.302;2022-10-23T01:48:52;11.60;99.90
2100;DHT22;1055;48.854;9.302;2022-10-23T01:51:20;11.60;99.90
2100;DHT22;1055;48.854;9.302;2022-10-23T01:53:48;11.50;99.90
2100;DHT22;1055;48.854;9.302;2022-10-23T01:56:19;11.30;99.90
2100;DHT22;1055;48.854;9.302;2022-10-23T01:58:47;11.30;99.90
2100;DHT22;1055;48.854;9.302;2022-10-23T02:01:17;11.50;99.90
2100;DHT22;1055;48.854;9.302;2022-10-23T02:03:44;11.50;99.90
2100;DHT22;1055;48.854;9.302;2022-10-23T02:06:10;11.50;99.90
2100;DHT22;1055;48.854;9.302;2022-10-23T02:08:36;11.30;99.90
2100;DHT22;1055;48.854;9.302;2022-10-23T02:11:16;11.40;99.90
2100;DHT22;1055;48.854;9.302;2022-10-23T02:13:51;11.50;99.90
2100;DHT22;1055;48.854;9.302;2022-10-23T02:19:01;11.90;99.90
2100;DHT22;1055;48.854;9.302;2022-10-23T02:21:54;12.00;99.90
2100;DHT22;1055;48.854;9.302;2022-10-23T02:24:34;12.10;99.90
2100;DHT22;1055;48.854;9.302;2022-10-23T02:27:03;12.10;99.90
2100;DHT22;1055;48.854;9.302;2022-10-23T02:29:32;12.10;99.90
2100;DHT22;1055;48.854;9.302;2022-10-23T02:32:00;12.00;99.90
2100;DHT22;1055;48.854;9.302;2022-10-23T02:34:26;12.10;99.90
2100;DHT22;1055;48.854;9.302;2022-10-23T02:36:51;12.10;99.90
2100;DHT22;1055;48.854;9.302;2022-10-23T02:39:18;12.10;99.90
2100;DHT22;1055;48.854;9.302;2022-10-23T02:52:34;11.70;99.90
2100;DHT22;1055;48.854;9.302;2022-10-23T02:57:53;11.80;99.90
2100;DHT22;1055;48.854;9.302;2022-10-23T03:00:21;11.90;99.90
2100;DHT22;1055;48.854;9.302;2022-10-23T03:03:01;11.90;99.90
2100;DHT22;1055;48.854;9.302;2022-10-23T03:05:33;11.90;99.90
2100;DHT22;1055;48.854;9.302;2022-10-23T03:08:03;11.70;99.90
2100;DHT22;1055;48.854;9.302;2022-10-23T03:10:29;11.90;99.90
2100;DHT22;1055;48.854;9.302;2022-10-23T03:12:55;11.90;99.90
2100;DHT22;1055;48.854;9.302;2022-10-23T03:15:21;12.10;99.90
2100;DHT22;1055;48.854;9.302;2022-10-23T03:17:46;11.80;99.90
2100;DHT22;1055;48.854;9.302;2022-10-23T03:20:12;11.80;99.90
2100;DHT22;1055;48.854;9.302;2022-10-23T03:22:38;11.70;99.90
2100;DHT22;1055;48.854;9.302;2022-10-23T03:25:04;11.70;99.90
2100;DHT22;1055;48.854;9.302;2022-10-23T03:27:30;11.70;99.90
2100;DHT22;1055;48.854;9.302;2022-10-23T03:29:56;11.80;99.90
2100;DHT22;1055;48.854;9.302;2022-10-23T03:32:21;11.80;99.90
2100;DHT22;1055;48.854;9.302;2022-10-23T03:34:47;12.00;99.90
2100;DHT22;1055;48.854;9.302;2022-10-23T03:37:12;11.90;99.90
2100;DHT22;1055;48.854;9.302;2022-10-23T03:39:38;11.80;99.90
2100;DHT22;1055;48.854;9.302;2022-10-23T03:42:04;11.70;99.90
2100;DHT22;1055;48.854;9.302;2022-10-23T03:44:29;11.60;99.90
2100;DHT22;1055;48.854;9.302;2022-10-23T03:46:58;11.70;99.90
2100;DHT22;1055;48.854;9.302;2022-10-23T03:49:24;11.60;99.90
2100;DHT22;1055;48.854;9.302;2022-10-23T03:51:50;11.70;99.90
2100;DHT22;1055;48.854;9.302;2022-10-23T03:54:24;11.70;99.90
2100;DHT22;1055;48.854;9.302;2022-10-23T03:56:52;11.60;99.90
2100;DHT22;1055;48.854;9.302;2022-10-23T03:59:21;11.70;99.90
2100;DHT22;1055;48.854;9.302;2022-10-23T04:01:52;11.80;99.90
2100;DHT22;1055;48.854;9.302;2022-10-23T04:04:22;11.80;99.90
2100;DHT22;1055;48.854;9.302;2022-10-23T04:06:50;11.90;99.90
2100;DHT22;1055;48.854;9.302;2022-10-23T04:09:20;11.70;99.90
2100;DHT22;1055;48.854;9.302;2022-10-23T04:11:51;11.80;99.90
2100;DHT22;1055;48.854;9.302;2022-10-23T04:14:22;11.50;99.90
2100;DHT22;1055;48.854;9.302;2022-10-23T04:16:56;11.20;99.90
2100;DHT22;1055;48.854;9.302;2022-10-23T04:19:24;11.10;99.90
2100;DHT22;1055;48.854;9.302;2022-10-23T04:21:50;11.00;99.90
2100;DHT22;1055;48.854;9.302;2022-10-23T04:24:16;11.10;99.90
2100;DHT22;1055;48.854;9.302;2022-10-23T04:26:41;11.10;99.90
2100;DHT22;1055;48.854;9.302;2022-10-23T04:29:07;11.00;99.90
2100;DHT22;1055;48.854;9.302;2022-10-23T04:31:32;11.10;99.90
2100;DHT22;1055;48.854;9.302;2022-10-23T04:33:58;10.80;99.90
2100;DHT22;1055;48.854;9.302;2022-10-23T04:36:23;10.80;99.90
2100;DHT22;1055;48.854;9.302;2022-10-23T04:38:49;10.80;99.90
2100;DHT22;1055;48.854;9.302;2022-10-23T04:41:15;10.70;99.90
2100;DHT22;1055;48.854;9.302;2022-10-23T04:43:40;10.60;99.90
2100;DHT22;1055;48.854;9.302;2022-10-23T04:46:06;10.70;99.90
2100;DHT22;1055;48.854;9.302;2022-10-23T04:48:32;10.60;99.90
2100;DHT22;1055;48.854;9.302;2022-10-23T04:51:00;10.50;99.90
2100;DHT22;1055;48.854;9.302;2022-10-23T04:53:27;10.40;99.90
2100;DHT22;1055;48.854;9.302;2022-10-23T04:55:54;10.40;99.90
2100;DHT22;1055;48.854;9.302;2022-10-23T04:58:21;10.50;99.90
2100;DHT22;1055;48.854;9.302;2022-10-23T05:00:48;10.40;99.90
2100;DHT22;1055;48.854;9.302;2022-10-23T05:03:15;10.40;99.90
2100;DHT22;1055;48.854;9.302;2022-10-23T05:05:41;10.40;99.90
2100;DHT22;1055;48.854;9.302;2022-10-23T05:08:07;10.40;99.90
2100;DHT22;1055;48.854;9.302;2022-10-23T05:10:33;10.40;99.90
2100;DHT22;1055;48.854;9.302;2022-10-23T05:12:59;10.40;99.90
2100;DHT22;1055;48.854;9.302;2022-10-23T05:15:25;10.40;99.90
2100;DHT22;1055;48.854;9.302;2022-10-23T05:17:54;10.40;99.90
2100;DHT22;1055;48.854;9.302;2022-10-23T05:20:26;10.60;99.90
2100;DHT22;1055;48.854;9.302;2022-10-23T05:22:53;10.60;99.90
2100;DHT22;1055;48.854;9.302;2022-10-23T05:25:19;10.80;99.90
2100;DHT22;1055;48.854;9.302;2022-10-23T05:27:45;11.00;99.90
2100;DHT22;1055;48.854;9.302;2022-10-23T05:30:11;11.00;99.90
2100;DHT22;1055;48.854;9.302;2022-10-23T05:32:37;10.90;99.90
2100;DHT22;1055;48.854;9.302;2022-10-23T05:35:12;10.80;99.90
2100;DHT22;1055;48.854;9.302;2022-10-23T05:37:40;11.10;99.90
2100;DHT22;1055;48.854;9.302;2022-10-23T05:40:07;11.20;99.90
2100;DHT22;1055;48.854;9.302;2022-10-23T05:42:32;11.30;99.90
2100;DHT22;1055;48.854;9.302;2022-10-23T05:44:58;11.10;99.90
2100;DHT22;1055;48.854;9.302;2022-10-23T05:47:23;11.00;99.90
2100;DHT22;1055;48.854;9.302;2022-10-23T05:49:49;10.90;99.90
2100;DHT22;1055;48.854;9.302;2022-10-23T05:52:15;11.00;99.90
2100;DHT22;1055;48.854;9.302;2022-10-23T05:54:40;10.90;99.90
2100;DHT22;1055;48.854;9.302;2022-10-23T05:57:06;10.90;99.90
2100;DHT22;1055;48.854;9.302;2022-10-23T05:59:31;10.90;99.90
2100;DHT22;1055;48.854;9.302;2022-10-23T06:01:57;10.90;99.90
2100;DHT22;1055;48.854;9.302;2022-10-23T06:04:23;10.90;99.90
2100;DHT22;1055;48.854;9.302;2022-10-23T06:06:48;11.10;99.90
2100;DHT22;1055;48.854;9.302;2022-10-23T06:09:14;11.30;99.90
2100;DHT22;1055;48.854;9.302;2022-10-23T06:11:40;11.30;99.90
2100;DHT22;1055;48.854;9.302;2022-10-23T06:14:06;11.20;99.90
2100;DHT22;1055;48.854;9.302;2022-10-23T06:16:32;11.10;99.90
2100;DHT22;1055;48.854;9.302;2022-10-23T06:18:58;11.00;99.90
2100;DHT22;1055;48.854;9.302;2022-10-23T06:21:24;11.10;99.90
2100;DHT22;1055;48.854;9.302;2022-10-23T06:23:50;11.10;99.90
2100;DHT22;1055;48.854;9.302;2022-10-23T06:26:17;11.00;99.90
2100;DHT22;1055;48.854;9.302;2022-10-23T06:28:43;11.00;99.90
2100;DHT22;1055;48.854;9.302;2022-10-23T06:31:14;11.10;99.90
2100;DHT22;1055;48.854;9.302;2022-10-23T06:33:41;11.10;99.90
2100;DHT22;1055;48.854;9.302;2022-10-23T06:36:07;11.10;99.90
2100;DHT22;1055;48.854;9.302;2022-10-23T06:38:35;11.00;99.90
2100;DHT22;1055;48.854;9.302;2022-10-23T06:41:05;10.90;99.90
2100;DHT22;1055;48.854;9.302;2022-10-23T06:43:31;10.90;99.90
2100;DHT22;1055;48.854;9.302;2022-10-23T06:46:02;10.80;99.90
2100;DHT22;1055;48.854;9.302;2022-10-23T06:48:28;10.90;99.90
2100;DHT22;1055;48.854;9.302;2022-10-23T06:50:53;11.00;99.90
2100;DHT22;1055;48.854;9.302;2022-10-23T06:53:20;11.00;99.90
2100;DHT22;1055;48.854;9.302;2022-10-23T06:55:48;11.10;99.90
2100;DHT22;1055;48.854;9.302;2022-10-23T06:58:13;11.20;99.90
2100;DHT22;1055;48.854;9.302;2022-10-23T07:00:39;11.30;99.90
2100;DHT22;1055;48.854;9.302;2022-10-23T07:03:05;11.40;99.90
2100;DHT22;1055;48.854;9.302;2022-10-23T07:05:33;11.30;99.90
2100;DHT22;1055;48.854;9.302;2022-10-23T07:07:59;11.60;99.90
2100;DHT22;1055;48.854;9.302;2022-10-23T07:10:25;11.40;99.90
2100;DHT22;1055;48.854;9.302;2022-10-23T07:12:51;11.40;99.90
2100;DHT22;1055;48.854;9.302;2022-10-23T07:15:16;11.40;99.90
2100;DHT22;1055;48.854;9.302;2022-10-23T07:17:42;11.70;99.90
2100;DHT22;1055;48.854;9.302;2022-10-23T07:20:08;11.70;99.90
2100;DHT22;1055;48.854;9.302;2022-10-23T07:22:33;11.70;99.90
2100;DHT22;1055;48.854;9.302;2022-10-23T07:24:59;11.90;99.90
2100;DHT22;1055;48.854;9.302;2022-10-23T07:27:25;12.20;99.90
2100;DHT22;1055;48.854;9.302;2022-10-23T07:29:51;12.30;99.90
2100;DHT22;1055;48.854;9.302;2022-10-23T07:32:17;12.40;99.90
2100;DHT22;1055;48.854;9.302;2022-10-23T07:34:43;12.40;99.90
2100;DHT22;1055;48.854;9.302;2022-10-23T07:37:09;12.30;99.90
2100;DHT22;1055;48.854;9.302;2022-10-23T07:39:34;12.40;99.90
2100;DHT22;1055;48.854;9.302;2022-10-23T07:42:00;12.50;99.90
2100;DHT22;1055;48.854;9.302;2022-10-23T07:44:25;12.40;99.90
2100;DHT22;1055;48.854;9.302;2022-10-23T07:46:51;12.40;99.90
2100;DHT22;1055;48.854;9.302;2022-10-23T07:49:17;12.40;99.90
2100;DHT22;1055;48.854;9.302;2022-10-23T07:51:43;12.50;99.90
2100;DHT22;1055;48.854;9.302;2022-10-23T07:54:11;12.50;99.90
2100;DHT22;1055;48.854;9.302;2022-10-23T07:56:37;12.60;99.90
2100;DHT22;1055;48.854;9.302;2022-10-23T07:59:03;12.70;99.90
2100;DHT22;1055;48.854;9.302;2022-10-23T08:01:33;12.70;99.90
2100;DHT22;1055;48.854;9.302;2022-10-23T08:04:01;13.00;99.90
2100;DHT22;1055;48.854;9.302;2022-10-23T08:06:27;13.10;99.90
2100;DHT22;1055;48.854;9.302;2022-10-23T08:08:53;13.30;99.90
2100;DHT22;1055;48.854;9.302;2022-10-23T08:11:22;13.40;99.90
2100;DHT22;1055;48.854;9.302;2022-10-23T08:13:52;13.50;99.90
2100;DHT22;1055;48.854;9.302;2022-10-23T08:16:17;13.60;99.90
2100;DHT22;1055;48.854;9.302;2022-10-23T08:18:43;13.70;99.90
2100;DHT22;1055;48.854;9.302;2022-10-23T08:21:10;13.80;99.90
2100;DHT22;1055;48.854;9.302;2022-10-23T08:23:36;13.70;99.90
2100;DHT22;1055;48.854;9.302;2022-10-23T08:26:03;13.90;99.90
2100;DHT22;1055;48.854;9.302;2022-10-23T08:28:30;14.00;99.90
2100;DHT22;1055;48.854;9.302;2022-10-23T08:30:55;14.10;99.90
2100;DHT22;1055;48.854;9.302;2022-10-23T08:33:22;14.10;99.90
2100;DHT22;1055;48.854;9.302;2022-10-23T08:35:47;14.30;99.90
2100;DHT22;1055;48.854;9.302;2022-10-23T08:38:13;14.40;99.90
2100;DHT22;1055;48.854;9.302;2022-10-23T08:40:46;14.50;99.90
2100;DHT22;1055;48.854;9.302;2022-10-23T08:43:35;14.60;99.90
2100;DHT22;1055;48.854;9.302;2022-10-23T08:46:07;14.70;99.90
2100;DHT22;1055;48.854;9.302;2022-10-23T08:48:55;14.70;99.90
2100;DHT22;1055;48.854;9.302;2022-10-23T08:51:28;14.90;99.90
2100;DHT22;1055;48.854;9.302;2022-10-23T08:54:20;15.00;99.90
2100;DHT22;1055;48.854;9.302;2022-10-23T08:57:13;15.10;99.90
2100;DHT22;1055;48.854;9.302;2022-10-23T08:59:45;15.20;99.90
2100;DHT22;1055;48.854;9.302;2022-10-23T09:02:23;15.20;99.90
2100;DHT22;1055;48.854;9.302;2022-10-23T09:04:52;15.40;99.90
2100;DHT22;1055;48.854;9.302;2022-10-23T09:13:44;15.70;99.90
2100;DHT22;1055;48.854;9.302;2022-10-23T09:18:53;15.90;99.90
2100;DHT22;1055;48.854;9.302;2022-10-23T09:21:19;16.20;99.90
2100;DHT22;1055;48.854;9.302;2022-10-23T09:23:46;16.20;99.90
2100;DHT22;1055;48.854;9.302;2022-10-23T09:26:15;16.20;99.90
2100;DHT22;1055;48.854;9.302;2022-10-23T09:28:52;16.20;99.90
2100;DHT22;1055;48.854;9.302;2022-10-23T09:31:19;16.40;99.90
2100;DHT22;1055;48.854;9.302;2022-10-23T09:33:58;16.40;99.90
2100;DHT22;1055;48.854;9.302;2022-10-23T09:36:25;16.40;99.90
2100;DHT22;1055;48.854;9.302;2022-10-23T09:38:55;16.50;99.90
2100;DHT22;1055;48.854;9.302;2022-10-23T09:41:37;16.60;99.90
2100;DHT22;1055;48.854;9.302;2022-10-23T09:46:45;16.90;99.90
2100;DHT22;1055;48.854;9.302;2022-10-23T09:49:31;17.00;99.90
2100;DHT22;1055;48.854;9.302;2022-10-23T09:54:36;17.10;99.90
2100;DHT22;1055;48.854;9.302;2022-10-23T09:59:56;17.30;99.90
2100;DHT22;1055;48.854;9.302;2022-10-23T10:02:33;17.40;99.90
2100;DHT22;1055;48.854;9.302;2022-10-23T10:05:20;17.50;99.90
2100;DHT22;1055;48.854;9.302;2022-10-23T10:11:00;17.80;99.90
2100;DHT22;1055;48.854;9.302;2022-10-23T10:13:45;17.90;99.90
2100;DHT22;1055;48.854;9.302;2022-10-23T10:16:31;18.00;99.90
2100;DHT22;1055;48.854;9.302;2022-10-23T10:19:27;18.00;99.90
2100;DHT22;1055;48.854;9.302;2022-10-23T10:22:11;18.10;99.90
2100;DHT22;1055;48.854;9.302;2022-10-23T10:25:00;18.20;99.90
2100;DHT22;1055;48.854;9.302;2022-10-23T10:38:25;18.50;99.90
2100;DHT22;1055;48.854;9.302;2022-10-23T10:43:45;18.80;99.90
2100;DHT22;1055;48.854;9.302;2022-10-23T10:46:30;18.90;99.90
2100;DHT22;1055;48.854;9.302;2022-10-23T10:49:27;19.10;99.90
2100;DHT22;1055;48.854;9.302;2022-10-23T10:54:31;19.40;99.90
2100;DHT22;1055;48.854;9.302;2022-10-23T10:57:08;19.30;99.90
2100;DHT22;1055;48.854;9.302;2022-10-23T10:59:38;19.40;99.90
2100;DHT22;1055;48.854;9.302;2022-10-23T11:02:43;19.60;99.90
2100;DHT22;1055;48.854;9.302;2022-10-23T11:08:00;19.30;99.90
2100;DHT22;1055;48.854;9.302;2022-10-23T11:10:30;19.20;99.90
2100;DHT22;1055;48.854;9.302;2022-10-23T11:12:58;19.20;99.90
2100;DHT22;1055;48.854;9.302;2022-10-23T11:15:29;19.40;99.90
2100;DHT22;1055;48.854;9.302;2022-10-23T11:18:04;19.60;99.90
2100;DHT22;1055;48.854;9.302;2022-10-23T11:24:01;19.90;99.90
2100;DHT22;1055;48.854;9.302;2022-10-23T11:26:43;20.00;99.90
2100;DHT22;1055;48.854;9.302;2022-10-23T11:29:32;20.10;99.90
2100;DHT22;1055;48.854;9.302;2022-10-23T11:32:20;20.20;99.90
2100;DHT22;1055;48.854;9.302;2022-10-23T11:37:40;20.30;99.90
2100;DHT22;1055;48.854;9.302;2022-10-23T11:42:45;20.40;99.90
2100;DHT22;1055;48.854;9.302;2022-10-23T11:45:44;20.40;99.90
2100;DHT22;1055;48.854;9.302;2022-10-23T11:53:35;20.10;99.90
2100;DHT22;1055;48.854;9.302;2022-10-23T11:56:23;20.20;99.90
2100;DHT22;1055;48.854;9.302;2022-10-23T11:58:56;20.10;99.90
2100;DHT22;1055;48.854;9.302;2022-10-23T12:01:42;20.00;99.90
2100;DHT22;1055;48.854;9.302;2022-10-23T12:14:31;20.40;99.90
2100;DHT22;1055;48.854;9.302;2022-10-23T12:16:58;20.70;99.90
2100;DHT22;1055;48.854;9.302;2022-10-23T12:19:28;20.60;99.90
2100;DHT22;1055;48.854;9.302;2022-10-23T12:22:00;20.70;99.90
2100;DHT22;1055;48.854;9.302;2022-10-23T12:40:19;20.80;99.90
2100;DHT22;1055;48.854;9.302;2022-10-23T12:42:53;21.10;99.90
2100;DHT22;1055;48.854;9.302;2022-10-23T12:45:31;20.90;99.90
2100;DHT22;1055;48.854;9.302;2022-10-23T12:47:57;20.90;99.90
2100;DHT22;1055;48.854;9.302;2022-10-23T12:50:28;20.80;99.90
2100;DHT22;1055;48.854;9.302;2022-10-23T12:52:58;20.70;99.90
2100;DHT22;1055;48.854;9.302;2022-10-23T12:55:47;20.80;99.90
2100;DHT22;1055;48.854;9.302;2022-10-23T12:58:22;20.90;99.90
2100;DHT22;1055;48.854;9.302;2022-10-23T13:00:53;21.30;99.90
2100;DHT22;1055;48.854;9.302;2022-10-23T13:03:21;21.50;99.90
2100;DHT22;1055;48.854;9.302;2022-10-23T13:05:50;21.40;99.90
2100;DHT22;1055;48.854;9.302;2022-10-23T13:08:18;21.70;99.90
2100;DHT22;1055;48.854;9.302;2022-10-23T13:10:45;22.30;99.90
2100;DHT22;1055;48.854;9.302;2022-10-23T13:13:11;22.80;99.90
2100;DHT22;1055;48.854;9.302;2022-10-23T13:15:42;23.00;99.90
2100;DHT22;1055;48.854;9.302;2022-10-23T13:18:10;22.90;99.90
2100;DHT22;1055;48.854;9.302;2022-10-23T13:25:36;23.50;99.90
2100;DHT22;1055;48.854;9.302;2022-10-23T13:28:12;23.50;99.90
2100;DHT22;1055;48.854;9.302;2022-10-23T13:30:41;24.00;99.90
2100;DHT22;1055;48.854;9.302;2022-10-23T13:33:24;24.00;99.90
2100;DHT22;1055;48.854;9.302;2022-10-23T13:35:58;23.70;99.90
2100;DHT22;1055;48.854;9.302;2022-10-23T13:38:36;23.80;99.90
2100;DHT22;1055;48.854;9.302;2022-10-23T13:41:04;24.10;99.90
2100;DHT22;1055;48.854;9.302;2022-10-23T13:43:32;24.50;99.90
2100;DHT22;1055;48.854;9.302;2022-10-23T13:45:59;24.70;99.90
2100;DHT22;1055;48.854;9.302;2022-10-23T13:48:25;24.80;99.90
2100;DHT22;1055;48.854;9.302;2022-10-23T13:50:52;24.80;99.90
2100;DHT22;1055;48.854;9.302;2022-10-23T13:53:18;24.80;99.90
2100;DHT22;1055;48.854;9.302;2022-10-23T13:55:46;24.40;99.90
2100;DHT22;1055;48.854;9.302;2022-10-23T13:58:14;24.50;99.90
2100;DHT22;1055;48.854;9.302;2022-10-23T14:00:40;24.50;99.90
2100;DHT22;1055;48.854;9.302;2022-10-23T14:03:09;24.40;99.90
2100;DHT22;1055;48.854;9.302;2022-10-23T14:05:36;24.40;99.90
2100;DHT22;1055;48.854;9.302;2022-10-23T14:08:01;24.30;99.90
2100;DHT22;1055;48.854;9.302;2022-10-23T14:10:27;24.10;99.90
2100;DHT22;1055;48.854;9.302;2022-10-23T14:12:52;24.10;99.90
2100;DHT22;1055;48.854;9.302;2022-10-23T14:15:20;24.10;99.90
2100;DHT22;1055;48.854;9.302;2022-10-23T14:17:46;23.90;99.90
2100;DHT22;1055;48.854;9.302;2022-10-23T14:20:12;23.40;99.90
2100;DHT22;1055;48.854;9.302;2022-10-23T14:22:37;22.80;99.90
2100;DHT22;1055;48.854;9.302;2022-10-23T14:25:03;22.70;99.90
2100;DHT22;1055;48.854;9.302;2022-10-23T14:27:29;22.60;99.90
2100;DHT22;1055;48.854;9.302;2022-10-23T14:29:55;22.60;99.90
2100;DHT22;1055;48.854;9.302;2022-10-23T14:32:21;22.80;99.90
2100;DHT22;1055;48.854;9.302;2022-10-23T14:34:50;22.40;99.90
2100;DHT22;1055;48.854;9.302;2022-10-23T14:37:17;22.30;99.90
2100;DHT22;1055;48.854;9.302;2022-10-23T14:39:44;22.60;99.90
2100;DHT22;1055;48.854;9.302;2022-10-23T14:42:10;22.50;99.90
2100;DHT22;1055;48.854;9.302;2022-10-23T14:44:36;22.30;99.90
2100;DHT22;1055;48.854;9.302;2022-10-23T14:47:02;22.10;99.90
2100;DHT22;1055;48.854;9.302;2022-10-23T14:49:27;21.90;99.90
2100;DHT22;1055;48.854;9.302;2022-10-23T14:51:53;22.20;99.90
2100;DHT22;1055;48.854;9.302;2022-10-23T14:54:19;21.40;99.90
2100;DHT22;1055;48.854;9.302;2022-10-23T14:56:44;21.50;99.90
2100;DHT22;1055;48.854;9.302;2022-10-23T14:59:10;21.80;99.90
2100;DHT22;1055;48.854;9.302;2022-10-23T15:01:42;21.90;99.90
2100;DHT22;1055;48.854;9.302;2022-10-23T15:04:08;22.10;99.90
2100;DHT22;1055;48.854;9.302;2022-10-23T15:06:35;22.20;99.90
2100;DHT22;1055;48.854;9.302;2022-10-23T15:09:02;22.20;99.90
2100;DHT22;1055;48.854;9.302;2022-10-23T15:11:28;22.20;99.90
2100;DHT22;1055;48.854;9.302;2022-10-23T15:13:54;22.10;99.90
2100;DHT22;1055;48.854;9.302;2022-10-23T15:16:21;22.20;99.90
2100;DHT22;1055;48.854;9.302;2022-10-23T15:18:48;22.20;99.90
2100;DHT22;1055;48.854;9.302;2022-10-23T15:21:14;22.20;99.90
2100;DHT22;1055;48.854;9.302;2022-10-23T15:23:42;22.20;99.90
2100;DHT22;1055;48.854;9.302;2022-10-23T15:26:11;22.10;99.90
2100;DHT22;1055;48.854;9.302;2022-10-23T15:28:37;22.10;99.90
2100;DHT22;1055;48.854;9.302;2022-10-23T15:31:04;22.00;99.90
2100;DHT22;1055;48.854;9.302;2022-10-23T15:33:30;21.60;99.90
2100;DHT22;1055;48.854;9.302;2022-10-23T15:35:55;21.40;99.90
2100;DHT22;1055;48.854;9.302;2022-10-23T15:38:22;21.50;99.90
2100;DHT22;1055;48.854;9.302;2022-10-23T15:40:48;21.50;99.90
2100;DHT22;1055;48.854;9.302;2022-10-23T15:43:15;21.50;99.90
2100;DHT22;1055;48.854;9.302;2022-10-23T15:45:41;21.20;99.90
2100;DHT22;1055;48.854;9.302;2022-10-23T15:48:08;21.40;99.90
2100;DHT22;1055;48.854;9.302;2022-10-23T15:50:34;20.60;99.90
2100;DHT22;1055;48.854;9.302;2022-10-23T15:53:00;20.50;99.90
2100;DHT22;1055;48.854;9.302;2022-10-23T15:55:26;20.70;99.90
2100;DHT22;1055;48.854;9.302;2022-10-23T15:57:53;20.80;99.90
2100;DHT22;1055;48.854;9.302;2022-10-23T16:00:19;20.90;99.90
2100;DHT22;1055;48.854;9.302;2022-10-23T16:02:44;20.90;99.90
2100;DHT22;1055;48.854;9.302;2022-10-23T16:05:10;21.00;99.90
2100;DHT22;1055;48.854;9.302;2022-10-23T16:07:35;20.60;99.90
2100;DHT22;1055;48.854;9.302;2022-10-23T16:10:01;20.80;99.90
2100;DHT22;1055;48.854;9.302;2022-10-23T16:12:27;20.60;99.90
2100;DHT22;1055;48.854;9.302;2022-10-23T16:14:52;20.50;99.90
2100;DHT22;1055;48.854;9.302;2022-10-23T16:17:18;20.70;99.90
2100;DHT22;1055;48.854;9.302;2022-10-23T16:19:44;20.60;99.90
2100;DHT22;1055;48.854;9.302;2022-10-23T16:22:10;20.20;99.90
2100;DHT22;1055;48.854;9.302;2022-10-23T16:24:36;20.20;99.90
2100;DHT22;1055;48.854;9.302;2022-10-23T16:27:02;19.90;99.90
2100;DHT22;1055;48.854;9.302;2022-10-23T16:29:28;19.70;99.90
2100;DHT22;1055;48.854;9.302;2022-10-23T16:31:55;19.70;99.90
2100;DHT22;1055;48.854;9.302;2022-10-23T16:34:21;19.60;99.90
2100;DHT22;1055;48.854;9.302;2022-10-23T16:36:48;19.50;99.90
2100;DHT22;1055;48.854;9.302;2022-10-23T16:39:15;19.30;99.90
2100;DHT22;1055;48.854;9.302;2022-10-23T16:41:41;19.50;99.90
2100;DHT22;1055;48.854;9.302;2022-10-23T16:44:08;19.60;99.90
2100;DHT22;1055;48.854;9.302;2022-10-23T16:46:35;19.60;99.90
2100;DHT22;1055;48.854;9.302;2022-10-23T16:49:02;19.70;99.90
2100;DHT22;1055;48.854;9.302;2022-10-23T16:51:30;19.80;99.90
2100;DHT22;1055;48.854;9.302;2022-10-23T16:53:58;19.70;99.90
2100;DHT22;1055;48.854;9.302;2022-10-23T16:56:28;19.80;99.90
2100;DHT22;1055;48.854;9.302;2022-10-23T16:58:57;19.70;99.90
2100;DHT22;1055;48.854;9.302;2022-10-23T17:01:27;19.50;99.90
2100;DHT22;1055;48.854;9.302;2022-10-23T17:04:10;19.80;99.90
2100;DHT22;1055;48.854;9.302;2022-10-23T17:06:39;19.90;99.90
2100;DHT22;1055;48.854;9.302;2022-10-23T17:09:06;19.80;99.90
2100;DHT22;1055;48.854;9.302;2022-10-23T17:11:35;20.00;99.90
2100;DHT22;1055;48.854;9.302;2022-10-23T17:14:10;20.00;99.90
2100;DHT22;1055;48.854;9.302;2022-10-23T17:16:44;20.10;99.90
2100;DHT22;1055;48.854;9.302;2022-10-23T17:19:12;20.10;99.90
2100;DHT22;1055;48.854;9.302;2022-10-23T17:21:40;20.20;99.90
2100;DHT22;1055;48.854;9.302;2022-10-23T17:24:09;20.10;99.90
2100;DHT22;1055;48.854;9.302;2022-10-23T17:26:39;19.90;99.90
2100;DHT22;1055;48.854;9.302;2022-10-23T17:29:11;19.80;99.90
2100;DHT22;1055;48.854;9.302;2022-10-23T17:31:48;19.90;99.90
2100;DHT22;1055;48.854;9.302;2022-10-23T17:34:17;19.80;99.90
2100;DHT22;1055;48.854;9.302;2022-10-23T17:36:50;20.00;99.90
2100;DHT22;1055;48.854;9.302;2022-10-23T17:39:22;19.70;99.90
2100;DHT22;1055;48.854;9.302;2022-10-23T17:41:50;19.60;99.90
2100;DHT22;1055;48.854;9.302;2022-10-23T17:44:19;19.50;99.90
2100;DHT22;1055;48.854;9.302;2022-10-23T17:46:49;19.40;99.90
2100;DHT22;1055;48.854;9.302;2022-10-23T17:49:19;19.50;99.90
2100;DHT22;1055;48.854;9.302;2022-10-23T17:51:51;19.60;99.90
2100;DHT22;1055;48.854;9.302;2022-10-23T17:54:19;19.70;99.90
2100;DHT22;1055;48.854;9.302;2022-10-23T17:56:46;19.80;99.90
2100;DHT22;1055;48.854;9.302;2022-10-23T17:59:15;19.90;99.90
2100;DHT22;1055;48.854;9.302;2022-10-23T18:01:44;19.70;99.90
2100;DHT22;1055;48.854;9.302;2022-10-23T18:04:16;19.80;99.90
2100;DHT22;1055;48.854;9.302;2022-10-23T18:06:48;19.90;99.90
2100;DHT22;1055;48.854;9.302;2022-10-23T18:09:15;20.00;99.90
2100;DHT22;1055;48.854;9.302;2022-10-23T18:11:42;20.10;99.90